sensor_id;sensor_type;location;lat;lon;timestamp;temperature;humidity
9219;DHT22;4644;48.858;9.184;2024-02-21T00:00:53;6.30;99.90
9219;DHT22;4644;48.858;9.184;2024-02-21T00:03:20;6.30;99.90
9219;DHT22;4644;48.858;9.184;2024-02-21T00:05:51;6.30;99.90
9219;DHT22;4644;48.858;9.184;2024-02-21T00:08:17;6.30;99.90
9219;DHT22;4644;48.858;9.184;2024-02-21T00:10:44;6.30;99.90
9219;DHT22;4644;48.858;9.184;2024-02-21T00:13:12;6.30;99.90
9219;DHT22;4644;48.858;9.184;2024-02-21T00:15:39;6.30;99.90
9219;DHT22;4644;48.858;9.184;2024-02-21T00:18:06;6.30;99.90
9219;DHT22;4644;48.858;9.184;2024-02-21T00:20:32;6.30;99.90
9219;DHT22;4644;48.858;9.184;2024-02-21T00:23:01;6.30;99.90
9219;DHT22;4644;48.858;9.184;2024-02-21T00:25:27;6.30;99.90
9219;DHT22;4644;48.858;9.184;2024-02-21T00:27:54;6.30;99.90
9219;DHT22;4644;48.858;9.184;2024-02-21T00:30:22;6.30;99.90
9219;DHT22;4644;48.858;9.184;2024-02-21T00:32:48;6.30;99.90
9219;DHT22;4644;48.858;9.184;2024-02-21T00:35:15;6.40;99.90
9219;DHT22;4644;48.858;9.184;2024-02-21T00:37:42;6.40;99.90
9219;DHT22;4644;48.858;9.184;2024-02-21T00:40:11;6.40;99.90
9219;DHT22;4644;48.858;9.184;2024-02-21T00:42:38;6.40;99.90
9219;DHT22;4644;48.858;9.184;2024-02-21T00:45:05;6.40;99.90
9219;DHT22;4644;48.858;9.184;2024-02-21T00:47:33;6.40;99.90
9219;DHT22;4644;48.858;9.184;2024-02-21T00:50:00;6.40;99.90
9219;DHT22;4644;48.858;9.184;2024-02-21T00:52:27;6.40;99.90
9219;DHT22;4644;48.858;9.184;2024-02-21T00:54:53;6.40;99.90
9219;DHT22;4644;48.858;9.184;2024-02-21T00:57:21;6.30;99.90
9219;DHT22;4644;48.858;9.184;2024-02-21T00:59:49;6.30;99.90
9219;DHT22;4644;48.858;9.184;2024-02-21T01:02:15;6.40;99.90
9219;DHT22;4644;48.858;9.184;2024-02-21T01:04:42;6.40;99.90
9219;DHT22;4644;48.858;9.184;2024-02-21T01:07:09;6.30;99.90
9219;DHT22;4644;48.858;9.184;2024-02-21T01:09:36;6.30;99.90
9219;DHT22;4644;48.858;9.184;2024-02-21T01:12:03;6.40;99.90
9219;DHT22;4644;48.858;9.184;2024-02-21T01:14:31;6.40;99.90
9219;DHT22;4644;48.858;9.184;2024-02-21T01:16:58;6.40;99.90
9219;DHT22;4644;48.858;9.184;2024-02-21T01:19:25;6.40;99.90
9219;DHT22;4644;48.858;9.184;2024-02-21T01:21:52;6.50;99.90
9219;DHT22;4644;48.858;9.184;2024-02-21T01:24:19;6.50;99.90
9219;DHT22;4644;48.858;9.184;2024-02-21T01:26:45;6.50;99.90
9219;DHT22;4644;48.858;9.184;2024-02-21T01:29:12;6.50;99.90
9219;DHT22;4644;48.858;9.184;2024-02-21T01:31:41;6.60;99.90
9219;DHT22;4644;48.858;9.184;2024-02-21T01:34:08;6.60;99.90
9219;DHT22;4644;48.858;9.184;2024-02-21T01:36:35;6.60;99.90
9219;DHT22;4644;48.858;9.184;2024-02-21T01:39:01;6.60;99.90
9219;DHT22;4644;48.858;9.184;2024-02-21T01:41:29;6.60;99.90
9219;DHT22;4644;48.858;9.184;2024-02-21T01:43:56;6.60;99.90
9219;DHT22;4644;48.858;9.184;2024-02-21T01:46:23;6.60;99.90
9219;DHT22;4644;48.858;9.184;2024-02-21T01:48:54;6.60;99.90
9219;DHT22;4644;48.858;9.184;2024-02-21T01:51:21;6.60;99.90
9219;DHT22;4644;48.858;9.184;2024-02-21T01:53:51;6.60;99.90
9219;DHT22;4644;48.858;9.184;2024-02-21T01:56:18;6.60;99.90
9219;DHT22;4644;48.858;9.184;2024-02-21T01:58:46;6.60;99.90
9219;DHT22;4644;48.858;9.184;2024-02-21T02:01:13;6.60;99.90
9219;DHT22;4644;48.858;9.184;2024-02-21T02:03:45;6.60;99.90
9219;DHT22;4644;48.858;9.184;2024-02-21T02:06:14;6.60;99.90
9219;DHT22;4644;48.858;9.184;2024-02-21T02:08:42;6.60;99.90
9219;DHT22;4644;48.858;9.184;2024-02-21T02:11:09;6.70;99.90
9219;DHT22;4644;48.858;9.184;2024-02-21T02:13:36;6.70;99.90
9219;DHT22;4644;48.858;9.184;2024-02-21T02:16:05;6.70;99.90
9219;DHT22;4644;48.858;9.184;2024-02-21T02:18:32;6.70;99.90
9219;DHT22;4644;48.858;9.184;2024-02-21T02:20:59;6.70;99.90
9219;DHT22;4644;48.858;9.184;2024-02-21T02:23:28;6.70;99.90
9219;DHT22;4644;48.858;9.184;2024-02-21T02:25:55;6.70;99.90
9219;DHT22;4644;48.858;9.184;2024-02-21T02:28:22;6.70;99.90
9219;DHT22;4644;48.858;9.184;2024-02-21T02:30:50;6.70;99.90
9219;DHT22;4644;48.858;9.184;2024-02-21T02:33:17;6.70;99.90
9219;DHT22;4644;48.858;9.184;2024-02-21T02:35:44;6.70;99.90
9219;DHT22;4644;48.858;9.184;2024-02-21T02:38:11;6.70;99.90
9219;DHT22;4644;48.858;9.184;2024-02-21T02:40:43;6.70;99.90
9219;DHT22;4644;48.858;9.184;2024-02-21T02:43:10;6.70;99.90
9219;DHT22;4644;48.858;9.184;2024-02-21T02:45:37;6.70;99.90
9219;DHT22;4644;48.858;9.184;2024-02-21T02:48:04;6.80;99.90
9219;DHT22;4644;48.858;9.184;2024-02-21T02:50:31;6.90;99.90
9219;DHT22;4644;48.858;9.184;2024-02-21T02:52:58;6.90;99.90
9219;DHT22;4644;48.858;9.184;2024-02-21T02:55:24;6.80;99.90
9219;DHT22;4644;48.858;9.184;2024-02-21T02:57:54;6.70;99.90
9219;DHT22;4644;48.858;9.184;2024-02-21T03:00:21;6.70;99.90
9219;DHT22;4644;48.858;9.184;2024-02-21T03:02:49;6.60;99.90
9219;DHT22;4644;48.858;9.184;2024-02-21T03:05:17;6.50;99.90
9219;DHT22;4644;48.858;9.184;2024-02-21T03:07:44;6.40;99.90
9219;DHT22;4644;48.858;9.184;2024-02-21T03:10:12;6.40;99.90
9219;DHT22;4644;48.858;9.184;2024-02-21T03:12:39;6.30;99.90
9219;DHT22;4644;48.858;9.184;2024-02-21T03:15:08;6.30;99.90
9219;DHT22;4644;48.858;9.184;2024-02-21T03:17:35;6.30;99.90
9219;DHT22;4644;48.858;9.184;2024-02-21T03:20:02;6.20;99.90
9219;DHT22;4644;48.858;9.184;2024-02-21T03:22:31;6.20;99.90
9219;DHT22;4644;48.858;9.184;2024-02-21T03:24:58;6.20;99.90
9219;DHT22;4644;48.858;9.184;2024-02-21T03:27:25;6.20;99.90
9219;DHT22;4644;48.858;9.184;2024-02-21T03:29:52;6.20;99.90
9219;DHT22;4644;48.858;9.184;2024-02-21T03:32:20;6.20;99.90
9219;DHT22;4644;48.858;9.184;2024-02-21T03:34:47;6.20;99.90
9219;DHT22;4644;48.858;9.184;2024-02-21T03:37:13;6.20;99.90
9219;DHT22;4644;48.858;9.184;2024-02-21T03:39:41;6.20;99.90
9219;DHT22;4644;48.858;9.184;2024-02-21T03:42:08;6.20;99.90
9219;DHT22;4644;48.858;9.184;2024-02-21T03:44:34;6.20;99.90
9219;DHT22;4644;48.858;9.184;2024-02-21T03:47:01;6.20;99.90
9219;DHT22;4644;48.858;9.184;2024-02-21T03:49:30;6.20;99.90
9219;DHT22;4644;48.858;9.184;2024-02-21T03:51:56;6.20;99.90
9219;DHT22;4644;48.858;9.184;2024-02-21T03:54:23;6.20;99.90
9219;DHT22;4644;48.858;9.184;2024-02-21T03:56:50;6.20;99.90
9219;DHT22;4644;48.858;9.184;2024-02-21T03:59:17;6.20;99.90
9219;DHT22;4644;48.858;9.184;2024-02-21T04:01:44;6.20;99.90
9219;DHT22;4644;48.858;9.184;2024-02-21T04:04:10;6.20;99.90
9219;DHT22;4644;48.858;9.184;2024-02-21T04:06:47;6.20;99.90
9219;DHT22;4644;48.858;9.184;2024-02-21T04:09:14;6.30;99.90
9219;DHT22;4644;48.858;9.184;2024-02-21T04:11:41;6.30;99.90
9219;DHT22;4644;48.858;9.184;2024-02-21T04:14:08;6.20;99.90
9219;DHT22;4644;48.858;9.184;2024-02-21T04:16:36;6.20;99.90
9219;DHT22;4644;48.858;9.184;2024-02-21T04:19:03;6.20;99.90
9219;DHT22;4644;48.858;9.184;2024-02-21T04:21:30;6.20;99.90
9219;DHT22;4644;48.858;9.184;2024-02-21T04:23:58;6.10;99.90
9219;DHT22;4644;48.858;9.184;2024-02-21T04:26:25;6.10;99.90
9219;DHT22;4644;48.858;9.184;2024-02-21T04:28:52;6.10;99.90
9219;DHT22;4644;48.858;9.184;2024-02-21T04:31:19;6.10;99.90
9219;DHT22;4644;48.858;9.184;2024-02-21T04:33:45;6.10;99.90
9219;DHT22;4644;48.858;9.184;2024-02-21T04:36:12;6.00;99.90
9219;DHT22;4644;48.858;9.184;2024-02-21T04:38:40;6.00;99.90
9219;DHT22;4644;48.858;9.184;2024-02-21T04:41:08;6.00;99.90
9219;DHT22;4644;48.858;9.184;2024-02-21T04:43:35;5.90;99.90
9219;DHT22;4644;48.858;9.184;2024-02-21T04:46:01;5.90;99.90
9219;DHT22;4644;48.858;9.184;2024-02-21T04:48:28;5.90;99.90
9219;DHT22;4644;48.858;9.184;2024-02-21T04:50:55;5.90;99.90
9219;DHT22;4644;48.858;9.184;2024-02-21T04:53:22;5.80;99.90
9219;DHT22;4644;48.858;9.184;2024-02-21T04:55:49;5.80;99.90
9219;DHT22;4644;48.858;9.184;2024-02-21T04:58:17;5.70;99.90
9219;DHT22;4644;48.858;9.184;2024-02-21T05:00:43;5.80;99.90
9219;DHT22;4644;48.858;9.184;2024-02-21T05:03:10;5.70;99.90
9219;DHT22;4644;48.858;9.184;2024-02-21T05:05:37;5.70;99.90
9219;DHT22;4644;48.858;9.184;2024-02-21T05:08:04;5.60;99.90
9219;DHT22;4644;48.858;9.184;2024-02-21T05:10:31;5.60;99.90
9219;DHT22;4644;48.858;9.184;2024-02-21T05:12:58;5.50;99.90
9219;DHT22;4644;48.858;9.184;2024-02-21T05:15:26;5.50;99.90
9219;DHT22;4644;48.858;9.184;2024-02-21T05:17:53;5.50;99.90
9219;DHT22;4644;48.858;9.184;2024-02-21T05:20:20;5.40;99.90
9219;DHT22;4644;48.858;9.184;2024-02-21T05:22:46;5.40;99.90
9219;DHT22;4644;48.858;9.184;2024-02-21T05:25:13;5.40;99.90
9219;DHT22;4644;48.858;9.184;2024-02-21T05:27:40;5.40;99.90
9219;DHT22;4644;48.858;9.184;2024-02-21T05:30:07;5.30;99.90
9219;DHT22;4644;48.858;9.184;2024-02-21T05:32:37;5.40;99.90
9219;DHT22;4644;48.858;9.184;2024-02-21T05:35:04;5.40;99.90
9219;DHT22;4644;48.858;9.184;2024-02-21T05:37:30;5.30;99.90
9219;DHT22;4644;48.858;9.184;2024-02-21T05:39:57;5.30;99.90
9219;DHT22;4644;48.858;9.184;2024-02-21T05:42:24;5.30;99.90
9219;DHT22;4644;48.858;9.184;2024-02-21T05:44:51;5.40;99.90
9219;DHT22;4644;48.858;9.184;2024-02-21T05:47:18;5.40;99.90
9219;DHT22;4644;48.858;9.184;2024-02-21T05:49:47;5.40;99.90
9219;DHT22;4644;48.858;9.184;2024-02-21T05:52:19;5.40;99.90
9219;DHT22;4644;48.858;9.184;2024-02-21T05:54:45;5.40;99.90
9219;DHT22;4644;48.858;9.184;2024-02-21T05:57:17;5.50;99.90
9219;DHT22;4644;48.858;9.184;2024-02-21T05:59:44;5.50;99.90
9219;DHT22;4644;48.858;9.184;2024-02-21T06:02:11;5.50;99.90
9219;DHT22;4644;48.858;9.184;2024-02-21T06:04:38;5.50;99.90
9219;DHT22;4644;48.858;9.184;2024-02-21T06:07:07;5.50;99.90
9219;DHT22;4644;48.858;9.184;2024-02-21T06:09:33;5.40;99.90
9219;DHT22;4644;48.858;9.184;2024-02-21T06:12:00;5.40;99.90
9219;DHT22;4644;48.858;9.184;2024-02-21T06:14:27;5.40;99.90
9219;DHT22;4644;48.858;9.184;2024-02-21T06:16:54;5.40;99.90
9219;DHT22;4644;48.858;9.184;2024-02-21T06:19:21;5.40;99.90
9219;DHT22;4644;48.858;9.184;2024-02-21T06:21:47;5.30;99.90
9219;DHT22;4644;48.858;9.184;2024-02-21T06:24:16;5.30;99.90
9219;DHT22;4644;48.858;9.184;2024-02-21T06:26:42;5.30;99.90
9219;DHT22;4644;48.858;9.184;2024-02-21T06:29:10;5.20;99.90
9219;DHT22;4644;48.858;9.184;2024-02-21T06:31:39;5.20;99.90
9219;DHT22;4644;48.858;9.184;2024-02-21T06:34:06;5.20;99.90
9219;DHT22;4644;48.858;9.184;2024-02-21T06:36:33;5.20;99.90
9219;DHT22;4644;48.858;9.184;2024-02-21T06:38:59;5.20;99.90
9219;DHT22;4644;48.858;9.184;2024-02-21T06:41:28;5.10;99.90
9219;DHT22;4644;48.858;9.184;2024-02-21T06:43:56;5.10;99.90
9219;DHT22;4644;48.858;9.184;2024-02-21T06:46:23;5.10;99.90
9219;DHT22;4644;48.858;9.184;2024-02-21T06:48:50;5.10;99.90
9219;DHT22;4644;48.858;9.184;2024-02-21T06:51:18;5.10;99.90
9219;DHT22;4644;48.858;9.184;2024-02-21T06:53:44;5.10;99.90
9219;DHT22;4644;48.858;9.184;2024-02-21T06:56:11;5.10;99.90
9219;DHT22;4644;48.858;9.184;2024-02-21T06:58:39;5.20;99.90
9219;DHT22;4644;48.858;9.184;2024-02-21T07:01:06;5.20;99.90
9219;DHT22;4644;48.858;9.184;2024-02-21T07:03:33;5.20;99.90
9219;DHT22;4644;48.858;9.184;2024-02-21T07:06:00;5.30;99.90
9219;DHT22;4644;48.858;9.184;2024-02-21T07:08:27;5.40;99.90
9219;DHT22;4644;48.858;9.184;2024-02-21T07:10:54;5.40;99.90
9219;DHT22;4644;48.858;9.184;2024-02-21T07:13:20;5.50;99.90
9219;DHT22;4644;48.858;9.184;2024-02-21T07:15:49;5.60;99.90
9219;DHT22;4644;48.858;9.184;2024-02-21T07:18:16;5.60;99.90
9219;DHT22;4644;48.858;9.184;2024-02-21T07:20:43;5.70;99.90
9219;DHT22;4644;48.858;9.184;2024-02-21T07:23:10;5.80;99.90
9219;DHT22;4644;48.858;9.184;2024-02-21T07:25:37;5.90;99.90
9219;DHT22;4644;48.858;9.184;2024-02-21T07:28:05;6.00;99.90
9219;DHT22;4644;48.858;9.184;2024-02-21T07:30:32;6.10;99.90
9219;DHT22;4644;48.858;9.184;2024-02-21T07:33:00;6.20;99.90
9219;DHT22;4644;48.858;9.184;2024-02-21T07:35:27;6.30;99.90
9219;DHT22;4644;48.858;9.184;2024-02-21T07:37:53;6.40;99.90
9219;DHT22;4644;48.858;9.184;2024-02-21T07:40:20;6.50;99.90
9219;DHT22;4644;48.858;9.184;2024-02-21T07:42:47;6.60;99.90
9219;DHT22;4644;48.858;9.184;2024-02-21T07:45:14;6.70;99.90
9219;DHT22;4644;48.858;9.184;2024-02-21T07:47:40;6.80;99.90
9219;DHT22;4644;48.858;9.184;2024-02-21T07:50:09;7.00;99.90
9219;DHT22;4644;48.858;9.184;2024-02-21T07:52:36;7.10;99.90
9219;DHT22;4644;48.858;9.184;2024-02-21T07:55:03;7.30;99.90
9219;DHT22;4644;48.858;9.184;2024-02-21T07:57:30;7.50;99.90
9219;DHT22;4644;48.858;9.184;2024-02-21T07:59:57;7.60;99.90
9219;DHT22;4644;48.858;9.184;2024-02-21T08:02:24;7.80;99.90
9219;DHT22;4644;48.858;9.184;2024-02-21T08:04:51;8.00;99.90
9219;DHT22;4644;48.858;9.184;2024-02-21T08:07:19;8.10;99.90
9219;DHT22;4644;48.858;9.184;2024-02-21T08:09:45;8.20;99.90
9219;DHT22;4644;48.858;9.184;2024-02-21T08:12:12;8.30;99.90
9219;DHT22;4644;48.858;9.184;2024-02-21T08:14:39;8.40;99.90
9219;DHT22;4644;48.858;9.184;2024-02-21T08:17:06;8.50;99.90
9219;DHT22;4644;48.858;9.184;2024-02-21T08:19:32;8.60;99.90
9219;DHT22;4644;48.858;9.184;2024-02-21T08:21:59;8.60;99.90
9219;DHT22;4644;48.858;9.184;2024-02-21T08:24:27;8.70;99.90
9219;DHT22;4644;48.858;9.184;2024-02-21T08:26:54;8.80;99.90
9219;DHT22;4644;48.858;9.184;2024-02-21T08:29:21;8.80;99.90
9219;DHT22;4644;48.858;9.184;2024-02-21T08:31:48;8.90;99.90
9219;DHT22;4644;48.858;9.184;2024-02-21T08:34:15;8.90;99.90
9219;DHT22;4644;48.858;9.184;2024-02-21T08:36:43;9.00;99.90
9219;DHT22;4644;48.858;9.184;2024-02-21T08:39:10;9.10;99.90
9219;DHT22;4644;48.858;9.184;2024-02-21T08:41:38;9.10;99.90
9219;DHT22;4644;48.858;9.184;2024-02-21T08:44:05;9.10;99.90
9219;DHT22;4644;48.858;9.184;2024-02-21T08:46:32;9.10;99.90
9219;DHT22;4644;48.858;9.184;2024-02-21T08:49:00;9.10;99.90
9219;DHT22;4644;48.858;9.184;2024-02-21T08:51:26;9.10;99.90
9219;DHT22;4644;48.858;9.184;2024-02-21T08:53:53;9.00;99.90
9219;DHT22;4644;48.858;9.184;2024-02-21T08:56:20;9.00;99.90
9219;DHT22;4644;48.858;9.184;2024-02-21T08:58:48;9.00;99.90
9219;DHT22;4644;48.858;9.184;2024-02-21T09:01:14;8.90;99.90
9219;DHT22;4644;48.858;9.184;2024-02-21T09:03:41;9.00;99.90
9219;DHT22;4644;48.858;9.184;2024-02-21T09:06:09;9.00;99.90
9219;DHT22;4644;48.858;9.184;2024-02-21T09:08:38;9.10;99.90
9219;DHT22;4644;48.858;9.184;2024-02-21T09:11:06;9.20;99.90
9219;DHT22;4644;48.858;9.184;2024-02-21T09:13:33;9.20;99.90
9219;DHT22;4644;48.858;9.184;2024-02-21T09:16:01;9.20;99.90
9219;DHT22;4644;48.858;9.184;2024-02-21T09:18:28;9.20;99.90
9219;DHT22;4644;48.858;9.184;2024-02-21T09:20:55;9.20;99.90
9219;DHT22;4644;48.858;9.184;2024-02-21T09:23:24;9.30;99.90
9219;DHT22;4644;48.858;9.184;2024-02-21T09:25:51;9.30;99.90
9219;DHT22;4644;48.858;9.184;2024-02-21T09:28:17;9.40;99.90
9219;DHT22;4644;48.858;9.184;2024-02-21T09:30:44;9.40;99.90
9219;DHT22;4644;48.858;9.184;2024-02-21T09:33:13;9.50;99.90
9219;DHT22;4644;48.858;9.184;2024-02-21T09:35:40;9.50;99.90
9219;DHT22;4644;48.858;9.184;2024-02-21T09:38:07;9.60;99.90
9219;DHT22;4644;48.858;9.184;2024-02-21T09:40:33;9.70;99.90
9219;DHT22;4644;48.858;9.184;2024-02-21T09:43:04;9.70;99.90
9219;DHT22;4644;48.858;9.184;2024-02-21T09:45:33;9.90;99.90
9219;DHT22;4644;48.858;9.184;2024-02-21T09:48:25;10.20;99.90
9219;DHT22;4644;48.858;9.184;2024-02-21T09:50:56;10.20;99.90
9219;DHT22;4644;48.858;9.184;2024-02-21T09:53:24;10.20;99.90
9219;DHT22;4644;48.858;9.184;2024-02-21T09:55:52;10.40;99.90
9219;DHT22;4644;48.858;9.184;2024-02-21T09:58:19;10.40;99.90
9219;DHT22;4644;48.858;9.184;2024-02-21T10:00:46;10.60;99.90
9219;DHT22;4644;48.858;9.184;2024-02-21T10:03:13;10.60;99.90
9219;DHT22;4644;48.858;9.184;2024-02-21T10:05:47;10.50;99.90
9219;DHT22;4644;48.858;9.184;2024-02-21T10:08:15;10.60;99.90
9219;DHT22;4644;48.858;9.184;2024-02-21T10:10:43;10.70;99.90
9219;DHT22;4644;48.858;9.184;2024-02-21T10:13:10;10.80;99.90
9219;DHT22;4644;48.858;9.184;2024-02-21T10:15:37;10.90;99.90
9219;DHT22;4644;48.858;9.184;2024-02-21T10:18:04;11.00;99.90
9219;DHT22;4644;48.858;9.184;2024-02-21T10:20:32;11.00;99.90
9219;DHT22;4644;48.858;9.184;2024-02-21T10:23:04;11.10;99.90
9219;DHT22;4644;48.858;9.184;2024-02-21T10:25:34;11.20;99.90
9219;DHT22;4644;48.858;9.184;2024-02-21T10:28:02;11.40;99.90
9219;DHT22;4644;48.858;9.184;2024-02-21T10:30:29;11.60;99.90
9219;DHT22;4644;48.858;9.184;2024-02-21T10:32:56;11.60;99.90
9219;DHT22;4644;48.858;9.184;2024-02-21T10:35:27;11.60;99.90
9219;DHT22;4644;48.858;9.184;2024-02-21T10:37:55;11.60;99.90
9219;DHT22;4644;48.858;9.184;2024-02-21T10:40:24;11.70;99.90
9219;DHT22;4644;48.858;9.184;2024-02-21T10:42:56;11.60;99.90
9219;DHT22;4644;48.858;9.184;2024-02-21T10:45:28;11.60;99.90
9219;DHT22;4644;48.858;9.184;2024-02-21T10:47:57;11.70;99.90
9219;DHT22;4644;48.858;9.184;2024-02-21T10:50:29;11.70;99.90
9219;DHT22;4644;48.858;9.184;2024-02-21T10:53:03;11.90;99.90
9219;DHT22;4644;48.858;9.184;2024-02-21T10:55:38;11.90;99.90
9219;DHT22;4644;48.858;9.184;2024-02-21T10:58:08;11.90;99.90
9219;DHT22;4644;48.858;9.184;2024-02-21T11:00:37;11.90;99.90
9219;DHT22;4644;48.858;9.184;2024-02-21T11:03:04;12.00;99.90
9219;DHT22;4644;48.858;9.184;2024-02-21T11:05:32;11.90;98.80
9219;DHT22;4644;48.858;9.184;2024-02-21T11:07:59;11.90;99.70
9219;DHT22;4644;48.858;9.184;2024-02-21T11:10:27;11.80;97.70
9219;DHT22;4644;48.858;9.184;2024-02-21T11:13:05;11.70;98.50
9219;DHT22;4644;48.858;9.184;2024-02-21T11:15:32;11.70;99.80
9219;DHT22;4644;48.858;9.184;2024-02-21T11:17:59;11.70;99.60
9219;DHT22;4644;48.858;9.184;2024-02-21T11:20:32;11.80;98.90
9219;DHT22;4644;48.858;9.184;2024-02-21T11:22:59;11.90;97.60
9219;DHT22;4644;48.858;9.184;2024-02-21T11:25:27;12.00;99.20
9219;DHT22;4644;48.858;9.184;2024-02-21T11:28:01;12.10;99.90
9219;DHT22;4644;48.858;9.184;2024-02-21T11:30:29;12.30;99.90
9219;DHT22;4644;48.858;9.184;2024-02-21T11:33:00;12.40;99.90
9219;DHT22;4644;48.858;9.184;2024-02-21T11:35:31;12.40;98.30
9219;DHT22;4644;48.858;9.184;2024-02-21T11:38:08;12.40;98.00
9219;DHT22;4644;48.858;9.184;2024-02-21T11:40:38;12.50;99.60
9219;DHT22;4644;48.858;9.184;2024-02-21T11:43:07;12.40;95.80
9219;DHT22;4644;48.858;9.184;2024-02-21T11:45:34;12.20;95.20
9219;DHT22;4644;48.858;9.184;2024-02-21T11:48:00;12.10;96.50
9219;DHT22;4644;48.858;9.184;2024-02-21T11:50:29;12.20;95.20
9219;DHT22;4644;48.858;9.184;2024-02-21T11:52:56;12.20;94.60
9219;DHT22;4644;48.858;9.184;2024-02-21T11:55:23;12.10;94.30
9219;DHT22;4644;48.858;9.184;2024-02-21T11:57:50;12.10;93.60
9219;DHT22;4644;48.858;9.184;2024-02-21T12:00:19;12.10;95.20
9219;DHT22;4644;48.858;9.184;2024-02-21T12:02:47;12.20;94.50
9219;DHT22;4644;48.858;9.184;2024-02-21T12:05:15;12.30;96.10
9219;DHT22;4644;48.858;9.184;2024-02-21T12:07:43;12.20;96.10
9219;DHT22;4644;48.858;9.184;2024-02-21T12:10:10;12.30;94.00
9219;DHT22;4644;48.858;9.184;2024-02-21T12:12:37;12.20;93.50
9219;DHT22;4644;48.858;9.184;2024-02-21T12:15:05;12.20;94.50
9219;DHT22;4644;48.858;9.184;2024-02-21T12:17:34;12.10;94.40
9219;DHT22;4644;48.858;9.184;2024-02-21T12:20:01;12.10;94.40
9219;DHT22;4644;48.858;9.184;2024-02-21T12:22:30;12.20;96.20
9219;DHT22;4644;48.858;9.184;2024-02-21T12:24:58;12.20;97.90
9219;DHT22;4644;48.858;9.184;2024-02-21T12:27:27;12.30;97.20
9219;DHT22;4644;48.858;9.184;2024-02-21T12:29:54;12.30;96.90
9219;DHT22;4644;48.858;9.184;2024-02-21T12:32:21;12.30;94.90
9219;DHT22;4644;48.858;9.184;2024-02-21T12:34:49;12.20;93.70
9219;DHT22;4644;48.858;9.184;2024-02-21T12:37:18;12.30;95.00
9219;DHT22;4644;48.858;9.184;2024-02-21T12:39:45;12.30;95.90
9219;DHT22;4644;48.858;9.184;2024-02-21T12:42:12;12.40;95.60
9219;DHT22;4644;48.858;9.184;2024-02-21T12:44:38;12.50;93.80
9219;DHT22;4644;48.858;9.184;2024-02-21T12:47:05;12.50;92.30
9219;DHT22;4644;48.858;9.184;2024-02-21T12:49:33;12.60;93.40
9219;DHT22;4644;48.858;9.184;2024-02-21T12:52:02;12.70;93.50
9219;DHT22;4644;48.858;9.184;2024-02-21T12:54:29;12.80;93.10
9219;DHT22;4644;48.858;9.184;2024-02-21T12:56:56;12.60;95.00
9219;DHT22;4644;48.858;9.184;2024-02-21T12:59:23;12.60;92.50
9219;DHT22;4644;48.858;9.184;2024-02-21T13:01:51;12.70;95.10
9219;DHT22;4644;48.858;9.184;2024-02-21T13:04:18;12.70;91.80
9219;DHT22;4644;48.858;9.184;2024-02-21T13:06:47;12.70;92.10
9219;DHT22;4644;48.858;9.184;2024-02-21T13:09:15;12.80;91.50
9219;DHT22;4644;48.858;9.184;2024-02-21T13:11:42;12.80;90.90
9219;DHT22;4644;48.858;9.184;2024-02-21T13:14:10;12.80;91.40
9219;DHT22;4644;48.858;9.184;2024-02-21T13:16:37;12.90;89.70
9219;DHT22;4644;48.858;9.184;2024-02-21T13:19:06;13.00;93.60
9219;DHT22;4644;48.858;9.184;2024-02-21T13:21:33;13.10;92.50
9219;DHT22;4644;48.858;9.184;2024-02-21T13:24:00;13.10;89.00
9219;DHT22;4644;48.858;9.184;2024-02-21T13:26:28;13.00;89.20
9219;DHT22;4644;48.858;9.184;2024-02-21T13:28:55;13.10;88.10
9219;DHT22;4644;48.858;9.184;2024-02-21T13:31:22;13.10;92.30
9219;DHT22;4644;48.858;9.184;2024-02-21T13:33:50;13.20;91.80
9219;DHT22;4644;48.858;9.184;2024-02-21T13:36:17;13.20;90.40
9219;DHT22;4644;48.858;9.184;2024-02-21T13:38:45;13.00;89.30
9219;DHT22;4644;48.858;9.184;2024-02-21T13:41:12;13.00;91.00
9219;DHT22;4644;48.858;9.184;2024-02-21T13:43:40;13.00;89.60
9219;DHT22;4644;48.858;9.184;2024-02-21T13:46:07;13.00;90.00
9219;DHT22;4644;48.858;9.184;2024-02-21T13:48:36;13.00;92.00
9219;DHT22;4644;48.858;9.184;2024-02-21T13:51:04;13.20;87.10
9219;DHT22;4644;48.858;9.184;2024-02-21T13:53:31;13.20;88.40
9219;DHT22;4644;48.858;9.184;2024-02-21T13:55:58;13.10;90.10
9219;DHT22;4644;48.858;9.184;2024-02-21T13:58:25;13.10;91.10
9219;DHT22;4644;48.858;9.184;2024-02-21T14:00:53;13.00;88.80
9219;DHT22;4644;48.858;9.184;2024-02-21T14:03:20;13.00;87.20
9219;DHT22;4644;48.858;9.184;2024-02-21T14:05:47;13.00;82.70
9219;DHT22;4644;48.858;9.184;2024-02-21T14:08:14;13.00;88.50
9219;DHT22;4644;48.858;9.184;2024-02-21T14:10:41;12.90;83.90
9219;DHT22;4644;48.858;9.184;2024-02-21T14:13:08;12.90;84.50
9219;DHT22;4644;48.858;9.184;2024-02-21T14:15:35;13.00;83.60
9219;DHT22;4644;48.858;9.184;2024-02-21T14:18:07;13.00;86.70
9219;DHT22;4644;48.858;9.184;2024-02-21T14:20:35;13.00;90.20
9219;DHT22;4644;48.858;9.184;2024-02-21T14:23:02;12.90;86.70
9219;DHT22;4644;48.858;9.184;2024-02-21T14:25:30;13.00;87.50
9219;DHT22;4644;48.858;9.184;2024-02-21T14:27:56;13.00;90.20
9219;DHT22;4644;48.858;9.184;2024-02-21T14:30:23;13.00;90.30
9219;DHT22;4644;48.858;9.184;2024-02-21T14:32:51;13.00;90.00
9219;DHT22;4644;48.858;9.184;2024-02-21T14:35:19;13.00;85.80
9219;DHT22;4644;48.858;9.184;2024-02-21T14:37:46;13.00;91.80
9219;DHT22;4644;48.858;9.184;2024-02-21T14:40:14;13.00;90.90
9219;DHT22;4644;48.858;9.184;2024-02-21T14:42:41;13.00;85.70
9219;DHT22;4644;48.858;9.184;2024-02-21T14:45:09;13.00;90.60
9219;DHT22;4644;48.858;9.184;2024-02-21T14:47:35;13.10;90.70
9219;DHT22;4644;48.858;9.184;2024-02-21T14:50:03;13.10;91.40
9219;DHT22;4644;48.858;9.184;2024-02-21T14:52:32;13.20;93.10
9219;DHT22;4644;48.858;9.184;2024-02-21T14:55:00;13.00;92.20
9219;DHT22;4644;48.858;9.184;2024-02-21T14:57:28;12.90;93.30
9219;DHT22;4644;48.858;9.184;2024-02-21T14:59:55;12.80;94.10
9219;DHT22;4644;48.858;9.184;2024-02-21T15:02:24;12.90;94.10
9219;DHT22;4644;48.858;9.184;2024-02-21T15:04:53;13.00;92.50
9219;DHT22;4644;48.858;9.184;2024-02-21T15:07:20;12.90;91.40
9219;DHT22;4644;48.858;9.184;2024-02-21T15:09:50;12.80;93.10
9219;DHT22;4644;48.858;9.184;2024-02-21T15:12:17;12.80;92.80
9219;DHT22;4644;48.858;9.184;2024-02-21T15:14:44;12.70;90.00
9219;DHT22;4644;48.858;9.184;2024-02-21T15:17:11;12.60;87.80
9219;DHT22;4644;48.858;9.184;2024-02-21T15:19:38;12.60;90.40
9219;DHT22;4644;48.858;9.184;2024-02-21T15:22:09;12.60;85.80
9219;DHT22;4644;48.858;9.184;2024-02-21T15:24:37;12.60;81.60
9219;DHT22;4644;48.858;9.184;2024-02-21T15:27:05;12.60;79.30
9219;DHT22;4644;48.858;9.184;2024-02-21T15:29:32;12.60;78.90
9219;DHT22;4644;48.858;9.184;2024-02-21T15:32:01;12.60;79.40
9219;DHT22;4644;48.858;9.184;2024-02-21T15:34:28;12.60;78.60
9219;DHT22;4644;48.858;9.184;2024-02-21T15:36:55;12.50;80.10
9219;DHT22;4644;48.858;9.184;2024-02-21T15:39:21;12.50;79.90
9219;DHT22;4644;48.858;9.184;2024-02-21T15:41:48;12.50;77.00
9219;DHT22;4644;48.858;9.184;2024-02-21T15:44:17;12.40;76.30
9219;DHT22;4644;48.858;9.184;2024-02-21T15:46:45;12.40;74.40
9219;DHT22;4644;48.858;9.184;2024-02-21T15:49:12;12.40;73.70
9219;DHT22;4644;48.858;9.184;2024-02-21T15:51:39;12.40;71.30
9219;DHT22;4644;48.858;9.184;2024-02-21T15:54:06;12.30;74.70
9219;DHT22;4644;48.858;9.184;2024-02-21T15:56:36;12.30;73.60
9219;DHT22;4644;48.858;9.184;2024-02-21T15:59:02;12.30;76.40
9219;DHT22;4644;48.858;9.184;2024-02-21T16:01:31;12.30;72.30
9219;DHT22;4644;48.858;9.184;2024-02-21T16:04:00;12.30;72.10
9219;DHT22;4644;48.858;9.184;2024-02-21T16:06:27;12.20;73.20
9219;DHT22;4644;48.858;9.184;2024-02-21T16:08:54;12.20;74.20
9219;DHT22;4644;48.858;9.184;2024-02-21T16:11:21;12.10;74.50
9219;DHT22;4644;48.858;9.184;2024-02-21T16:13:48;12.10;74.40